Time;durP1;ratioP1;P1;durP2;ratioP2;P2;SDS_P1;SDS_P2;PMS_P1;PMS_P2;Temp;Humidity;BMP_temperature;BMP_pressure;BME280_temperature;BME280_humidity;BME280_pressure;Samples;Min_cycle;Max_cycle;Signal;HPM_P1;HPM_P2
2022/02/25 00:00:47;;;;;;;37.13;13.60;;;;;;;-0.11;100.00;101628.95;1690558;84;21345;-91
2022/02/25 00:03:14;;;;;;;36.30;13.30;;;;;;;-0.10;100.00;101612.56;1690240;84;20904;-90
2022/02/25 00:05:42;;;;;;;33.25;12.28;;;;;;;-0.08;100.00;101614.56;1690400;84;21062;-90
2022/02/25 00:08:09;;;;;;;33.80;12.37;;;;;;;-0.07;100.00;101610.41;1690577;84;21355;-90
2022/02/25 00:10:36;;;;;;;36.20;12.82;;;;;;;-0.05;100.00;101612.91;1690522;84;21118;-90
2022/02/25 00:13:03;;;;;;;33.78;12.58;;;;;;;-0.05;100.00;101605.78;1690475;84;21224;-90
2022/02/25 00:15:29;;;;;;;33.63;13.38;;;;;;;-0.05;100.00;101599.16;1690600;84;21011;-90
2022/02/25 00:17:56;;;;;;;37.90;13.50;;;;;;;-0.03;100.00;101595.86;1690559;84;21540;-90
2022/02/25 00:20:22;;;;;;;35.38;12.73;;;;;;;0.00;100.00;101593.37;1690527;84;21083;-90
2022/02/25 00:22:48;;;;;;;37.40;13.48;;;;;;;0.02;100.00;101591.37;1690607;84;20943;-90
2022/02/25 00:25:14;;;;;;;35.90;11.88;;;;;;;0.05;100.00;101584.41;1690568;84;21117;-90
2022/02/25 00:27:43;;;;;;;32.73;12.15;;;;;;;0.07;100.00;101584.27;1690599;84;21540;-90
2022/02/25 00:30:11;;;;;;;30.77;11.73;;;;;;;0.08;100.00;101575.30;1690563;84;21059;-90
2022/02/25 00:32:38;;;;;;;36.05;11.80;;;;;;;0.10;100.00;101569.35;1690623;84;21051;-90
2022/02/25 00:35:06;;;;;;;29.30;12.05;;;;;;;0.11;100.00;101568.34;1690347;84;21016;-90
2022/02/25 00:37:32;;;;;;;35.83;13.48;;;;;;;0.12;100.00;101554.95;1690517;84;21960;-90
2022/02/25 00:39:58;;;;;;;35.83;13.38;;;;;;;0.13;100.00;101549.14;1690392;84;21011;-90
2022/02/25 00:42:24;;;;;;;36.63;13.25;;;;;;;0.15;100.00;101551.13;1690748;84;21536;-90
2022/02/25 00:44:50;;;;;;;34.75;12.98;;;;;;;0.19;100.00;101540.52;1690647;84;20920;-91
2022/02/25 00:47:17;;;;;;;31.20;12.28;;;;;;;0.22;100.00;101541.00;1690832;84;22266;-90
2022/02/25 00:49:43;;;;;;;34.40;12.50;;;;;;;0.25;100.00;101541.16;1690764;84;21246;-90
2022/02/25 00:52:09;;;;;;;33.60;12.15;;;;;;;0.29;100.00;101539.00;1692451;83;21030;-90
2022/02/25 00:54:35;;;;;;;32.85;12.50;;;;;;;0.29;100.00;101534.52;1696280;84;21029;-90
2022/02/25 00:57:02;;;;;;;32.45;11.20;;;;;;;0.32;100.00;101536.01;1696077;84;21027;-90
2022/02/25 00:59:28;;;;;;;29.95;11.50;;;;;;;0.33;100.00;101537.18;1696258;84;20996;-90
2022/02/25 01:01:54;;;;;;;30.43;10.72;;;;;;;0.34;100.00;101528.72;1696032;84;21570;-90
2022/02/25 01:04:20;;;;;;;28.87;10.98;;;;;;;0.34;100.00;101528.22;1696092;84;20979;-90
2022/02/25 01:06:46;;;;;;;31.33;11.48;;;;;;;0.36;100.00;101514.30;1696210;84;21071;-90
2022/02/25 01:09:12;;;;;;;32.95;11.63;;;;;;;0.36;100.00;101514.30;1696208;84;21581;-90
2022/02/25 01:11:39;;;;;;;29.20;11.70;;;;;;;0.37;100.00;101518.60;1696148;84;21030;-90
2022/02/25 01:14:06;;;;;;;32.45;11.60;;;;;;;0.37;100.00;101508.50;1696227;84;21511;-90
2022/02/25 01:16:32;;;;;;;30.62;11.20;;;;;;;0.36;100.00;101501.55;1696007;83;21063;-90
2022/02/25 01:18:58;;;;;;;32.95;12.23;;;;;;;0.37;100.00;101493.92;1696050;84;21533;-89
2022/02/25 01:21:24;;;;;;;32.58;11.80;;;;;;;0.38;100.00;101492.44;1674462;84;20967;-90
2022/02/25 01:23:50;;;;;;;23.27;9.93;;;;;;;0.40;100.00;101485.63;1696225;84;21638;-90
2022/02/25 01:26:17;;;;;;;33.95;11.35;;;;;;;0.40;100.00;101485.12;1695946;84;21014;-90
2022/02/25 01:28:43;;;;;;;33.92;12.13;;;;;;;0.43;100.00;101482.62;1696119;84;21572;-90
2022/02/25 01:31:09;;;;;;;28.45;10.45;;;;;;;0.44;100.00;101475.84;1695999;84;21038;-89
2022/02/25 01:33:35;;;;;;;31.85;11.33;;;;;;;0.48;100.00;101475.50;1696196;84;21117;-91
2022/02/25 01:36:01;;;;;;;28.70;12.18;;;;;;;0.51;100.00;101476.48;1695996;84;21123;-90
2022/02/25 01:38:28;;;;;;;28.00;11.97;;;;;;;0.52;100.00;101474.15;1696181;84;21512;-90
2022/02/25 01:40:54;;;;;;;29.57;11.20;;;;;;;0.55;100.00;101475.13;1696051;84;21018;-91
2022/02/25 01:43:22;;;;;;;27.05;11.33;;;;;;;0.55;100.00;101475.95;1695805;84;21042;-90
2022/02/25 01:45:49;;;;;;;30.08;10.28;;;;;;;0.57;100.00;101469.16;1696192;84;21535;-91
2022/02/25 01:48:16;;;;;;;27.32;10.45;;;;;;;0.58;100.00;101471.63;1696176;84;21043;-91
2022/02/25 01:50:43;;;;;;;29.18;10.13;;;;;;;0.59;100.00;101465.34;1696234;84;21094;-90
2022/02/25 01:53:10;;;;;;;25.40;10.43;;;;;;;0.61;100.00;101463.33;1692170;82;21599;-90
2022/02/25 01:55:39;;;;;;;25.80;10.03;;;;;;;0.64;100.00;101459.00;1690816;84;21015;-89
2022/02/25 01:58:06;;;;;;;23.77;9.40;;;;;;;0.67;100.00;101462.62;1690763;84;21508;-90
2022/02/25 02:00:34;;;;;;;24.27;9.75;;;;;;;0.72;100.00;101466.61;1690511;84;21020;-90
2022/02/25 02:03:02;;;;;;;24.50;9.08;;;;;;;0.75;100.00;101469.73;1690623;84;21249;-90
2022/02/25 02:05:28;;;;;;;22.67;8.88;;;;;;;0.80;100.00;101460.77;1690587;84;21055;-90
2022/02/25 02:07:54;;;;;;;25.37;9.20;;;;;;;0.82;100.00;101458.73;1690655;84;20988;-89
2022/02/25 02:10:20;;;;;;;24.02;9.55;;;;;;;0.86;100.00;101457.41;1690760;84;21038;-89
2022/02/25 02:12:47;;;;;;;28.42;9.05;;;;;;;0.87;100.00;101461.70;1690461;84;21031;-89
2022/02/25 02:15:13;;;;;;;25.27;9.65;;;;;;;0.92;100.00;101467.01;1690558;84;21966;-89
2022/02/25 02:17:39;;;;;;;26.07;9.73;;;;;;;0.95;100.00;101466.66;1662898;84;21059;-89
2022/02/25 02:20:06;;;;;;;25.17;9.57;;;;;;;0.98;100.00;101453.86;1690569;84;20988;-88
2022/02/25 02:22:33;;;;;;;25.23;8.90;;;;;;;1.02;100.00;101459.12;1690538;84;21587;-89
2022/02/25 02:25:00;;;;;;;22.80;8.70;;;;;;;1.06;100.00;101452.48;1690330;84;21019;-88
2022/02/25 02:30:12;;;;;;;25.88;9.30;;;;;;;1.13;100.00;101454.75;1690110;84;21049;-88
2022/02/25 02:32:39;;;;;;;21.97;9.20;;;;;;;1.18;100.00;101454.70;1690611;84;21488;-88
2022/02/25 02:35:06;;;;;;;24.67;8.70;;;;;;;1.19;100.00;101449.23;1690579;84;21011;-89
2022/02/25 02:37:32;;;;;;;20.45;8.10;;;;;;;1.23;100.00;101454.51;1690177;84;21023;-90
2022/02/25 02:39:58;;;;;;;24.07;8.75;;;;;;;1.25;100.00;101447.20;1690443;84;21136;-91
2022/02/25 02:42:24;;;;;;;23.83;8.45;;;;;;;1.29;100.00;101448.99;1690706;84;20888;-91
2022/02/25 02:44:50;;;;;;;25.97;10.08;;;;;;;1.31;100.00;101441.18;1690789;84;20983;-88
2022/02/25 02:47:16;;;;;;;31.68;11.15;;;;;;;1.35;100.00;101440.31;1690507;84;20861;-89
2022/02/25 02:49:42;;;;;;;35.48;12.33;;;;;;;1.36;100.00;101429.53;1690541;84;21581;-88
2022/02/25 02:52:08;;;;;;;27.87;9.85;;;;;;;1.38;100.00;101431.99;1690311;84;21029;-88
2022/02/25 02:54:34;;;;;;;26.15;9.58;;;;;;;1.39;100.00;101431.52;1690288;84;21079;-89
2022/02/25 02:57:00;;;;;;;21.77;7.90;;;;;;;1.41;100.00;101427.65;1690960;84;20939;-88
2022/02/25 02:59:26;;;;;;;19.55;7.35;;;;;;;1.44;100.00;101423.81;1691075;84;20904;-88
2022/02/25 03:01:52;;;;;;;18.17;6.80;;;;;;;1.46;100.00;101421.31;1690571;84;21077;-87
2022/02/25 03:04:18;;;;;;;16.37;7.22;;;;;;;1.48;100.00;101417.16;1690492;84;21135;-91
2022/02/25 03:06:44;;;;;;;19.60;7.12;;;;;;;1.49;100.00;101426.77;1690547;84;20942;-89
2022/02/25 03:09:11;;;;;;;19.40;6.90;;;;;;;1.51;100.00;101424.77;1690108;84;21160;-88
2022/02/25 03:11:39;;;;;;;16.67;7.03;;;;;;;1.52;100.00;101417.11;1690219;84;21456;-88
2022/02/25 03:14:05;;;;;;;24.00;7.17;;;;;;;1.53;100.00;101405.00;1690789;84;21003;-88
2022/02/25 03:16:31;;;;;;;16.95;6.62;;;;;;;1.52;100.00;101405.16;1686143;84;21153;-88
2022/02/25 03:18:57;;;;;;;17.90;6.67;;;;;;;1.51;100.00;101402.19;1678501;84;20864;-88
2022/02/25 03:21:23;;;;;;;18.02;6.58;;;;;;;1.49;100.00;101401.03;1690506;84;21028;-88
2022/02/25 03:23:48;;;;;;;19.15;7.30;;;;;;;1.48;100.00;101399.39;1636822;86;20970;-88
2022/02/25 03:26:14;;;;;;;18.73;6.62;;;;;;;1.45;100.00;101393.62;1637237;87;20950;-87
2022/02/25 03:28:40;;;;;;;19.67;7.55;;;;;;;1.45;100.00;101402.91;1637463;87;21169;-87
2022/02/25 03:31:06;;;;;;;19.23;7.10;;;;;;;1.44;100.00;101393.28;1637000;87;21533;-89
2022/02/25 03:33:32;;;;;;;16.40;6.78;;;;;;;1.40;100.00;101390.67;1637386;87;20922;-89
2022/02/25 03:35:58;;;;;;;17.73;7.40;;;;;;;1.38;100.00;101388.17;1637156;87;21548;-89
2022/02/25 03:38:25;;;;;;;19.02;7.30;;;;;;;1.36;100.00;101379.59;1636943;87;21198;-90
2022/02/25 03:40:51;;;;;;;20.68;7.95;;;;;;;1.36;100.00;101383.06;1636936;87;21154;-89
2022/02/25 03:43:17;;;;;;;30.68;10.03;;;;;;;1.35;100.00;101385.88;1637237;87;21073;-89
2022/02/25 03:45:43;;;;;;;37.95;13.43;;;;;;;1.34;100.00;101385.06;1637389;87;20925;-90
2022/02/25 03:48:09;;;;;;;77.10;23.77;;;;;;;1.31;100.00;101382.77;1657754;84;21040;-89
2022/02/25 03:50:36;;;;;;;75.00;22.70;;;;;;;1.32;100.00;101375.14;1690648;84;20999;-89
2022/02/25 03:53:02;;;;;;;50.60;16.95;;;;;;;1.32;100.00;101370.31;1690304;83;21069;-88
2022/02/25 03:55:28;;;;;;;29.52;10.78;;;;;;;1.32;100.00;101371.64;1690590;84;21507;-89
2022/02/25 03:57:54;;;;;;;17.90;7.35;;;;;;;1.33;100.00;101375.45;1690749;84;21523;-88
2022/02/25 04:00:20;;;;;;;17.85;6.72;;;;;;;1.36;100.00;101380.91;1690614;84;20880;-88
2022/02/25 04:02:46;;;;;;;17.45;6.97;;;;;;;1.34;100.00;101373.11;1686119;84;20948;-88
2022/02/25 04:05:12;;;;;;;16.30;6.50;;;;;;;1.34;100.00;101378.42;1662020;84;21094;-89
2022/02/25 04:07:41;;;;;;;19.67;6.45;;;;;;;1.35;100.00;101375.26;1690302;84;21102;-88
2022/02/25 04:10:08;;;;;;;17.82;6.97;;;;;;;1.34;100.00;101375.77;1690626;84;21016;-88
2022/02/25 04:12:35;;;;;;;19.37;7.25;;;;;;;1.35;100.00;101371.28;1690528;84;21051;-85
2022/02/25 04:15:01;;;;;;;20.20;7.37;;;;;;;1.34;100.00;101381.59;1690489;84;21106;-89
2022/02/25 04:17:27;;;;;;;17.87;6.87;;;;;;;1.34;100.00;101381.08;1690746;84;21157;-89
2022/02/25 04:19:53;;;;;;;18.35;7.37;;;;;;;1.34;100.00;101385.56;1690465;84;21070;-89
2022/02/25 04:22:19;;;;;;;18.80;6.72;;;;;;;1.35;100.00;101381.42;1690629;84;20990;-89
2022/02/25 04:24:45;;;;;;;17.37;6.87;;;;;;;1.34;100.00;101380.26;1663162;84;21027;-87
2022/02/25 04:27:11;;;;;;;18.57;7.05;;;;;;;1.36;100.00;101381.73;1690784;84;21012;-88
2022/02/25 04:29:37;;;;;;;18.32;6.62;;;;;;;1.34;100.00;101377.09;1690754;84;21083;-87
2022/02/25 04:32:04;;;;;;;16.73;7.17;;;;;;;1.34;100.00;101378.94;1690490;84;21075;-89
2022/02/25 04:34:30;;;;;;;17.57;6.42;;;;;;;1.33;100.00;101378.62;1690610;84;21102;-88
2022/02/25 04:36:56;;;;;;;18.07;7.37;;;;;;;1.32;100.00;101380.45;1690382;84;21567;-89
2022/02/25 04:39:22;;;;;;;16.05;6.80;;;;;;;1.33;100.00;101384.75;1690676;84;20920;-89
2022/02/25 04:41:48;;;;;;;17.32;6.75;;;;;;;1.33;100.00;101371.47;1690386;84;21163;-89
2022/02/25 04:44:14;;;;;;;19.12;7.05;;;;;;;1.35;100.00;101376.11;1690465;84;21011;-89
2022/02/25 04:46:40;;;;;;;22.58;7.95;;;;;;;1.35;100.00;101373.45;1690412;84;21619;-88
2022/02/25 04:49:07;;;;;;;17.85;7.42;;;;;;;1.35;100.00;101374.78;1690526;84;21591;-88
2022/02/25 04:51:33;;;;;;;17.92;6.58;;;;;;;1.34;100.00;101375.77;1690440;84;21559;-89
2022/02/25 04:53:59;;;;;;;18.82;7.12;;;;;;;1.33;100.00;101378.11;1693927;84;21064;-88
2022/02/25 04:56:26;;;;;;;17.17;6.67;;;;;;;1.35;100.00;101372.13;1696285;84;21212;-90
2022/02/25 04:58:52;;;;;;;17.52;6.83;;;;;;;1.35;100.00;101360.18;1674505;84;21090;-87
2022/02/25 05:01:19;;;;;;;17.32;6.87;;;;;;;1.36;100.00;101356.51;1696742;84;20980;-85
2022/02/25 05:03:46;;;;;;;19.05;6.50;;;;;;;1.36;100.00;101351.70;1674038;84;21051;-86
2022/02/25 05:06:12;;;;;;;14.35;6.60;;;;;;;1.35;100.00;101351.36;1696391;84;21996;-89
2022/02/25 05:08:38;;;;;;;18.73;6.17;;;;;;;1.37;100.00;101353.34;1696103;83;20959;-89
2022/02/25 05:11:04;;;;;;;19.75;6.95;;;;;;;1.36;100.00;101356.51;1696358;83;21023;-89
2022/02/25 05:13:31;;;;;;;20.12;7.05;;;;;;;1.36;100.00;101350.38;1674343;84;21547;-88
2022/02/25 05:25:13;;;;;;;23.18;7.80;;;;;;;1.39;100.00;101354.00;1695567;84;21134;-89
2022/02/25 05:27:39;;;;;;;18.30;7.17;;;;;;;1.43;100.00;101349.14;1696270;84;21023;-91
2022/02/25 05:30:06;;;;;;;22.25;8.10;;;;;;;1.41;100.00;101340.52;1696385;84;21063;-89
2022/02/25 05:32:32;;;;;;;24.90;8.33;;;;;;;1.40;100.00;101337.55;1696116;83;21134;-89
2022/02/25 05:34:59;;;;;;;17.65;7.17;;;;;;;1.44;100.00;101341.02;1695900;84;21122;-88
2022/02/25 05:37:25;;;;;;;19.40;7.15;;;;;;;1.44;100.00;101334.38;1695857;84;21141;-90
2022/02/25 05:39:51;;;;;;;18.67;7.72;;;;;;;1.44;100.00;101328.21;1696263;84;21160;-89
2022/02/25 05:42:17;;;;;;;18.77;7.15;;;;;;;1.46;100.00;101333.67;1696020;84;21103;-89
2022/02/25 05:44:43;;;;;;;17.50;6.90;;;;;;;1.47;100.00;101327.37;1696184;83;21055;-90
2022/02/25 05:47:09;;;;;;;25.80;8.13;;;;;;;1.48;100.00;101326.35;1696084;83;20951;-90
2022/02/25 05:49:35;;;;;;;17.30;7.15;;;;;;;1.49;100.00;101325.34;1695980;84;21015;-89
2022/02/25 05:52:09;;;;;;;19.12;7.85;;;;;;;1.49;100.00;101326.66;1706165;83;20899;-89
2022/02/25 05:54:44;;;;;;;22.52;8.45;;;;;;;1.50;100.00;101320.84;1708497;82;21067;-90
2022/02/25 05:57:10;;;;;;;20.35;7.80;;;;;;;1.49;100.00;101315.22;1707424;83;21030;-90
2022/02/25 05:59:36;;;;;;;24.50;9.25;;;;;;;1.46;100.00;101304.96;1710501;82;21009;-90
2022/02/25 06:02:03;;;;;;;21.60;8.13;;;;;;;1.46;100.00;101305.78;1702388;83;21042;-88
2022/02/25 06:04:29;;;;;;;22.22;8.50;;;;;;;1.46;100.00;101299.14;1701292;82;21108;-88
2022/02/25 06:06:55;;;;;;;22.15;8.35;;;;;;;1.46;100.00;101295.16;1710767;83;21098;-89
2022/02/25 06:09:21;;;;;;;25.25;8.25;;;;;;;1.53;100.00;101289.94;1709821;83;21145;-92
2022/02/25 06:11:47;;;;;;;19.82;8.28;;;;;;;1.51;100.00;101290.13;1716756;82;20975;-91
2022/02/25 06:14:14;;;;;;;20.00;7.58;;;;;;;1.53;100.00;101285.95;1723796;83;21704;-90
2022/02/25 06:16:55;;;;;;;19.48;7.65;;;;;;;1.52;100.00;101277.67;1723623;83;21034;-88
2022/02/25 06:19:22;;;;;;;17.67;7.08;;;;;;;1.55;100.00;101271.99;1723465;83;21045;-91
2022/02/25 06:21:49;;;;;;;20.32;7.53;;;;;;;1.56;100.00;101276.31;1708774;83;21067;-94
2022/02/25 06:24:28;;;;;;;20.62;7.30;;;;;;;1.56;100.00;101292.25;1714632;83;21087;-91
2022/02/25 06:26:59;;;;;;;20.32;7.70;;;;;;;1.57;100.00;101276.12;1708199;83;21553;-95
2022/02/25 06:29:25;;;;;;;21.12;7.95;;;;;;;1.59;100.00;101275.44;1705877;83;21011;-92
2022/02/25 06:31:59;;;;;;;21.02;7.42;;;;;;;1.60;100.00;101290.87;1712041;83;21069;-93
2022/02/25 06:34:25;;;;;;;22.20;8.10;;;;;;;1.59;100.00;101303.33;1670845;84;21206;-92
2022/02/25 06:36:52;;;;;;;24.75;9.13;;;;;;;1.57;100.00;101309.32;1670683;85;21724;-91
2022/02/25 06:39:18;;;;;;;23.25;8.75;;;;;;;1.61;100.00;101319.06;1670685;85;21065;-94
2022/02/25 06:41:44;;;;;;;21.62;8.73;;;;;;;1.59;100.00;101318.45;1670785;85;21116;-91
2022/02/25 06:44:10;;;;;;;23.73;9.08;;;;;;;1.59;100.00;101329.08;1675505;84;21711;-90
2022/02/25 06:46:36;;;;;;;24.47;9.18;;;;;;;1.57;100.00;101323.11;1676039;84;21302;-90
2022/02/25 06:49:04;;;;;;;24.50;8.83;;;;;;;1.57;100.00;101317.29;1670423;84;21120;-96
2022/02/25 06:51:31;;;;;;;21.97;8.03;;;;;;;1.59;100.00;101319.27;1627577;86;21562;-96
2022/02/25 06:53:58;;;;;;;22.80;8.60;;;;;;;1.54;100.00;101309.69;1660724;85;21046;-94
2022/02/25 06:56:24;;;;;;;21.50;7.85;;;;;;;1.56;100.00;101307.69;1657897;86;21563;-93
2022/02/25 06:58:50;;;;;;;23.55;8.05;;;;;;;1.58;100.00;101303.50;1633870;87;21166;-91
2022/02/25 07:01:17;;;;;;;22.27;8.05;;;;;;;1.57;100.00;101305.34;1633644;87;20917;-92
2022/02/25 07:03:44;;;;;;;23.05;8.05;;;;;;;1.57;100.00;101302.68;1633783;87;21099;-92
2022/02/25 07:06:10;;;;;;;20.57;8.00;;;;;;;1.57;100.00;101298.70;1631003;87;21130;-90
2022/02/25 07:08:36;;;;;;;22.10;7.72;;;;;;;1.57;100.00;101296.04;1660439;85;21084;-92
2022/02/25 07:11:02;;;;;;;21.65;8.15;;;;;;;1.59;100.00;101294.55;1671924;85;21119;-90
2022/02/25 07:13:28;;;;;;;19.45;7.72;;;;;;;1.61;100.00;101297.81;1666189;85;21046;-91
2022/02/25 07:15:56;;;;;;;21.23;8.05;;;;;;;1.63;100.00;101298.98;1671752;85;20941;-90
2022/02/25 07:18:22;;;;;;;20.75;8.23;;;;;;;1.63;100.00;101296.32;1647103;85;21089;-93
2022/02/25 07:20:48;;;;;;;19.92;7.83;;;;;;;1.58;100.00;101290.22;1649008;85;21883;-92
2022/02/25 07:23:16;;;;;;;17.95;8.23;;;;;;;1.63;100.00;101291.01;1641063;87;21034;-94
2022/02/25 07:25:43;;;;;;;19.65;7.40;;;;;;;1.63;100.00;101289.17;1643597;87;21137;-92
2022/02/25 07:28:09;;;;;;;16.35;7.50;;;;;;;1.64;100.00;101282.02;1643837;86;21662;-93
2022/02/25 07:30:36;;;;;;;17.27;7.55;;;;;;;1.63;100.00;101280.38;1643741;87;21041;-91
2022/02/25 07:33:03;;;;;;;18.95;8.25;;;;;;;1.65;100.00;101278.34;1643996;87;21148;-92
2022/02/25 07:35:29;;;;;;;20.40;8.48;;;;;;;1.66;100.00;101276.85;1643882;86;21142;-93
2022/02/25 07:37:56;;;;;;;19.10;8.03;;;;;;;1.68;100.00;101277.50;1654805;85;20990;-91
2022/02/25 07:40:26;;;;;;;20.43;7.62;;;;;;;1.69;100.00;101267.18;1659938;85;21038;-93
2022/02/25 07:42:56;;;;;;;18.05;6.65;;;;;;;1.70;100.00;101256.86;1660509;85;21604;-95
2022/02/25 07:45:23;;;;;;;21.57;7.95;;;;;;;1.70;100.00;101254.20;1661158;86;21034;-90
2022/02/25 07:47:49;;;;;;;17.67;7.05;;;;;;;1.73;100.00;101247.70;1660284;85;21070;-93
2022/02/25 07:50:15;;;;;;;16.35;6.87;;;;;;;1.76;100.00;101247.33;1663828;85;21602;-93
2022/02/25 07:52:42;;;;;;;17.45;6.42;;;;;;;1.78;100.00;101236.84;1662331;86;21065;-90
2022/02/25 07:55:10;;;;;;;17.85;7.42;;;;;;;1.85;100.00;101240.08;1702964;83;21060;-89
2022/02/25 07:57:36;;;;;;;15.45;6.45;;;;;;;1.85;100.00;101238.75;1703688;83;21057;-94
2022/02/25 08:00:10;;;;;;;18.98;7.33;;;;;;;1.87;100.00;101236.74;1699099;83;21127;-86
2022/02/25 08:02:36;;;;;;;15.78;6.58;;;;;;;1.89;100.00;101228.09;1698522;83;21093;-86
2022/02/25 08:05:02;;;;;;;15.63;6.33;;;;;;;1.91;100.00;101226.05;1703501;83;21025;-89
2022/02/25 08:07:29;;;;;;;16.62;7.10;;;;;;;1.95;100.00;101214.87;1703485;83;21205;-90
2022/02/25 08:09:55;;;;;;;15.60;6.95;;;;;;;1.96;100.00;101211.70;1674241;83;21041;-92
2022/02/25 08:12:22;;;;;;;14.60;6.42;;;;;;;1.96;100.00;101207.71;1698387;83;21160;-89
2022/02/25 08:14:48;;;;;;;18.45;6.97;;;;;;;1.96;100.00;101203.72;1703672;83;21052;-94
2022/02/25 08:17:14;;;;;;;17.77;7.78;;;;;;;1.98;100.00;101203.03;1704090;83;21081;-92
2022/02/25 08:19:40;;;;;;;18.65;7.30;;;;;;;2.01;100.00;101200.82;1704457;83;21009;-93
2022/02/25 08:22:06;;;;;;;13.40;5.60;;;;;;;2.06;100.00;101201.59;1703866;84;21025;-95
2022/02/25 08:24:35;;;;;;;22.67;7.05;;;;;;;2.08;100.00;101206.71;1703768;83;21053;-94
2022/02/25 08:27:01;;;;;;;15.08;6.45;;;;;;;2.07;100.00;101201.09;1703769;83;21061;-93
2022/02/25 08:29:27;;;;;;;23.35;7.90;;;;;;;2.07;100.00;101208.55;1703781;83;21084;-93
2022/02/25 08:31:53;;;;;;;24.25;8.93;;;;;;;2.08;100.00;101205.38;1704474;83;21491;-91
2022/02/25 08:34:26;;;;;;;23.50;7.75;;;;;;;2.12;100.00;101206.64;1676828;84;21018;-95
2022/02/25 08:36:55;;;;;;;14.53;6.05;;;;;;;2.13;100.00;101202.48;1705315;84;21109;-95
2022/02/25 08:41:50;;;;;;;18.02;6.47;;;;;;;2.11;100.00;101192.53;1641614;86;21698;-94
2022/02/25 08:44:16;;;;;;;15.40;6.83;;;;;;;2.12;100.00;101192.02;1608224;88;21557;-93
2022/02/25 08:46:45;;;;;;;12.65;4.92;;;;;;;2.13;100.00;101193.69;1608226;88;21641;-92
2022/02/25 08:49:11;;;;;;;19.65;6.78;;;;;;;2.17;100.00;101199.74;1616115;87;21065;-95
2022/02/25 08:51:37;;;;;;;19.60;7.12;;;;;;;2.17;100.00;101207.72;1633443;87;21078;-91
2022/02/25 08:54:04;;;;;;;18.60;7.10;;;;;;;2.21;100.00;101197.55;1612196;87;21508;-94
2022/02/25 08:56:30;;;;;;;17.55;6.80;;;;;;;2.23;100.00;101195.00;1638597;87;21011;-92
2022/02/25 08:58:56;;;;;;;18.90;7.40;;;;;;;2.23;100.00;101194.18;1638999;87;21095;-94
2022/02/25 09:03:51;;;;;;;17.30;6.90;;;;;;;2.33;100.00;101190.71;1528068;93;21067;-95
2022/02/25 09:06:17;;;;;;;13.43;5.80;;;;;;;2.34;100.00;101184.88;1525394;93;21090;-92
2022/02/25 09:08:43;;;;;;;143.85;29.90;;;;;;;2.34;100.00;101183.55;1509066;93;21198;-96
2022/02/25 09:11:09;;;;;;;155.20;33.20;;;;;;;2.33;100.00;101170.77;1526827;93;21254;-88
2022/02/25 09:13:36;;;;;;;171.10;37.00;;;;;;;2.37;100.00;101173.86;1528092;93;21944;-89
2022/02/25 09:16:04;;;;;;;42.48;13.32;;;;;;;2.39;100.00;101172.66;1528115;93;21138;-92
2022/02/25 09:18:30;;;;;;;18.75;6.80;;;;;;;2.41;100.00;101171.12;1527998;93;21137;-91
2022/02/25 09:20:57;;;;;;;16.87;7.05;;;;;;;2.41;100.00;101167.98;1528024;93;21115;-92
2022/02/25 09:23:23;;;;;;;10.68;4.60;;;;;;;2.41;100.00;101166.65;1527803;93;21225;-89
2022/02/25 09:25:49;;;;;;;13.70;5.53;;;;;;;2.49;100.00;101165.67;1528097;93;21401;-90
2022/02/25 09:28:24;;;;;;;11.83;5.28;;;;;;;2.50;100.00;101164.67;1527841;93;21063;-93
2022/02/25 09:30:50;;;;;;;29.40;8.20;;;;;;;2.48;100.00;101165.37;1527846;93;21137;-92
2022/02/25 09:33:16;;;;;;;18.15;6.53;;;;;;;2.45;100.00;101162.58;1528194;93;21222;-92
2022/02/25 09:35:42;;;;;;;16.95;7.03;;;;;;;2.44;100.00;101149.45;1528524;93;21118;-92
2022/02/25 09:38:09;;;;;;;13.03;5.50;;;;;;;2.43;100.00;101152.63;1528910;93;21065;-90
2022/02/25 09:40:37;;;;;;;19.12;6.60;;;;;;;2.46;100.00;101152.76;1554213;88;21090;-88
2022/02/25 09:43:05;;;;;;;15.63;6.22;;;;;;;2.47;100.00;101153.06;1625346;88;21091;-87
2022/02/25 09:45:32;;;;;;;10.68;4.80;;;;;;;2.50;100.00;101146.05;1625567;88;21715;-90
2022/02/25 09:47:58;;;;;;;17.25;6.75;;;;;;;2.54;100.00;101146.48;1625415;88;21051;-89
2022/02/25 09:50:26;;;;;;;15.98;6.05;;;;;;;2.52;100.00;101138.69;1595965;88;21120;-87
2022/02/25 09:52:52;;;;;;;12.13;6.08;;;;;;;2.58;100.00;101139.75;1591239;89;21677;-92
2022/02/25 09:55:26;;;;;;;15.83;6.00;;;;;;;2.60;100.00;101132.41;1589178;88;21186;-89
2022/02/25 09:57:54;;;;;;;18.92;7.97;;;;;;;2.68;100.00;101124.28;1589947;88;21048;-90
2022/02/25 10:00:21;;;;;;;13.78;6.28;;;;;;;2.75;100.00;101117.66;1591924;89;21087;-87
2022/02/25 10:02:51;;;;;;;10.40;4.95;;;;;;;2.87;100.00;101111.59;1591016;89;21272;-89
2022/02/25 10:05:22;;;;;;;11.73;4.85;;;;;;;2.98;100.00;101112.89;1585654;89;21079;-86
2022/02/25 10:07:49;;;;;;;11.73;5.10;;;;;;;2.99;100.00;101105.20;1637554;84;21081;-89
2022/02/25 10:10:18;;;;;;;10.45;4.72;;;;;;;3.06;100.00;101101.23;1678505;84;21027;-88
2022/02/25 10:13:03;;;;;;;12.25;4.90;;;;;;;3.09;100.00;101097.70;1665726;85;21140;-89
2022/02/25 10:15:32;;;;;;;9.10;4.50;;;;;;;3.09;100.00;101092.37;1640399;85;21916;-90
2022/02/25 10:18:03;;;;;;;8.03;3.70;;;;;;;3.10;100.00;101097.17;1590273;89;21099;-90
2022/02/25 10:20:30;;;;;;;13.58;5.12;;;;;;;3.12;100.00;101094.63;1609468;88;21613;-90
2022/02/25 10:22:57;;;;;;;14.35;4.55;;;;;;;3.04;100.00;101087.32;1602923;89;21164;-87
2022/02/25 10:25:25;;;;;;;12.07;5.00;;;;;;;3.02;100.00;101076.86;1600756;89;21042;-90
2022/02/25 10:27:52;;;;;;;8.30;4.45;;;;;;;3.03;100.00;101075.01;1600469;88;21215;-87
2022/02/25 10:30:21;;;;;;;22.45;8.85;;;;;;;2.94;100.00;101074.35;1618074;87;21065;-91
2022/02/25 10:32:50;;;;;;;8.53;3.90;;;;;;;2.86;100.00;101086.00;1529368;93;21112;-91
2022/02/25 10:35:36;;;;;;;18.07;6.62;;;;;;;2.82;100.00;101078.08;1529911;92;21105;-96
2022/02/25 10:38:14;;;;;;;12.45;5.30;;;;;;;2.76;100.00;101072.73;1529753;93;21196;-92
2022/02/25 10:40:47;;;;;;;13.70;5.75;;;;;;;2.78;100.00;101069.38;1517693;94;21225;-95
2022/02/25 10:43:26;;;;;;;13.40;5.60;;;;;;;2.80;100.00;101081.47;1500458;94;21098;-94
2022/02/25 10:45:57;;;;;;;11.93;4.80;;;;;;;2.87;100.00;101075.66;1518128;94;21547;-93
2022/02/25 10:48:30;;;;;;;15.58;5.55;;;;;;;2.97;100.00;101072.62;1471913;97;21174;-94
2022/02/25 10:50:59;;;;;;;15.85;7.28;;;;;;;2.90;100.00;101057.14;1474728;97;21142;-92
2022/02/25 10:53:36;;;;;;;12.50;4.90;;;;;;;2.95;100.00;101060.05;1476112;97;21220;-90
2022/02/25 10:56:14;;;;;;;11.00;4.95;;;;;;;3.01;100.00;101061.91;1489721;95;21133;-92
2022/02/25 10:58:43;;;;;;;15.28;6.17;;;;;;;3.01;100.00;101055.26;1476317;96;21083;-93
2022/02/25 11:01:11;;;;;;;11.83;5.08;;;;;;;3.05;100.00;101052.50;1494503;96;21123;-95
2022/02/25 11:03:40;;;;;;;9.95;4.30;;;;;;;3.11;100.00;101040.23;1494298;96;21621;-90
2022/02/25 11:06:29;;;;;;;8.53;4.17;;;;;;;3.12;100.00;101044.56;1485950;96;21211;-88
2022/02/25 11:09:37;;;;;;;7.17;3.60;;;;;;;3.19;100.00;101041.39;1480776;96;21690;-92
2022/02/25 11:11:44;;;;;;;6.12;3.75;;;;;;;3.16;100.00;101045.27;1440266;97;21147;-92
2022/02/25 11:14:10;;;;;;;12.95;6.05;;;;;;;3.13;100.00;101047.52;1494891;93;21012;-88
2022/02/25 11:16:39;;;;;;;10.65;4.83;;;;;;;3.07;100.00;101041.15;1531858;93;21146;-89
2022/02/25 11:19:05;;;;;;;10.50;4.80;;;;;;;3.07;100.00;101041.66;1531970;93;21853;-88
2022/02/25 11:21:32;;;;;;;8.93;4.17;;;;;;;3.07;100.00;101035.82;1532007;93;21508;-89
2022/02/25 11:24:01;;;;;;;10.25;3.87;;;;;;;3.08;100.00;101025.47;1530622;93;21078;-91
2022/02/25 11:26:27;;;;;;;25.88;9.43;;;;;;;3.06;100.00;101026.69;1530530;93;21626;-89
2022/02/25 11:28:59;;;;;;;36.28;11.18;;;;;;;3.06;100.00;101019.55;1544800;90;21132;-87
2022/02/25 11:31:28;;;;;;;42.80;12.80;;;;;;;3.05;100.00;101017.89;1619227;87;21054;-88